Hang Nadim, Indonesia

2:22 PM WIT on July 31, 2014 (GMT +0700)
HANG NADIM (WIDD) Elev 125 ft | 1.12 °N, 104.12 °E | Change Station

Current weather conditions updated 22 minutes ago

Mostly Cloudy
Mostly Cloudy
86 °F
Feels Like 95 °F
N
10
Wind Variable Wind from SSW

Today is forecast to be nearly the same temperature as yesterday. Showers and thunderstorms.

Today
High -- | Low -- °F
--% Chance of Precip.
Yesterday
High -- | Low -- °F
Precip. -- in
6:05 AM 6:14 PM
Waxing Crescent, 16% visible
Pressure 29.80 in
Visibility 6.2 miles
Clouds Mostly Cloudy 2200 ft
Mostly Cloudy 2800 ft
Heat Index 95 °F
Dew Point 75 °F
Humidity 70%
Rainfall 0.00 in
Snow Depth Not available.
UV 7 out of 12
Pollen Not available.
Air Quality Not available.
Flu Activity Not available.
METAR WIDD 310700Z AUTO 21009KT 160V250 9999NDV BKN022 BKN028 30/24 Q1009

More Conditions Fewer Conditions

Pressure 29.80 in
Visibility 6.2 miles
Clouds Mostly Cloudy 2200 ft
Mostly Cloudy 2800 ft
Heat Index 95 °F
Dew Point 75 °F
Humidity 70%
Rainfall 0.00 in
Snow Depth Not available.
UV 7 out of 12
Pollen Not available.
Air Quality Not available.
Flu Activity Not available.
METAR WIDD 310700Z AUTO 21009KT 160V250 9999NDV BKN022 BKN028 30/24 Q1009

More Conditions Fewer Conditions

10-Day Weather Forecast

Almanac

Astronomy

Jul. 31, 2014 Rise Set
Actual Time 6:05 AM WIT 6:14 PM WIT
Civil Twilight 5:43 AM WIT 6:36 PM WIT
Nautical Twilight 5:17 AM WIT 7:02 PM WIT
Astronomical Twilight 4:52 AM WIT 7:27 PM WIT
Moon 8:59 AM WIT 9:20 PM WIT
Length of Visible Light 12h 53m
Length of Day
12h 09m
Tomorrow will be 0m 5s shorter.
Waxing Crescent, 16% of the Moon is Illuminated
Today
Waxing Crescent
Aug 3
First Quarter
Aug 10
Full
Aug 17
Last Quarter
Aug 25
New

Yesterday's Extremes

Country Highs Country Lows

Community

WunderPhotos

Upload Photos

1,739,257 photos uploaded!

Nearby

Snow Depth

Not available.

Earthquake Activity

City Distance Mag. Time & Date
No recent earthquake activity has been reported nearby.
Minimum magnitude displayed is 2.5.

Coastal Water Temperatures

Place Temperature
No Stations Reporting

Nearby Weather Stations

Station Location Temp. Heat Index Dew Point Humidity Wind Precip. Elev Updated Type
Ocean Park, Singapore 84.9 °F 99 °F 80 °F 85% NW  at  0.0 mph 0.00 in / hr 66 ft 3:21 PM SGT Normal
Alexandra, Singapore 81.2 °F 89 °F 78 °F 90% ENE  at  4.0 mph 0.00 in / hr 144 ft 3:17 PM SGT Normal

Show More Stations Show Fewer Stations